sensor_id;sensor_type;location;lat;lon;timestamp;pressure;altitude;pressure_sealevel;temperature;humidity
85130;BME280;75492;49.310;20.046;2024-03-29T00:03:07;90543.00;;;5.19;76.72
85130;BME280;75492;49.310;20.046;2024-03-29T00:08:09;90557.31;;;4.99;76.06
85130;BME280;75492;49.310;20.046;2024-03-29T00:13:10;90569.91;;;4.70;75.56
85130;BME280;75492;49.310;20.046;2024-03-29T00:18:13;90584.50;;;4.48;76.09
85130;BME280;75492;49.310;20.046;2024-03-29T00:23:14;90583.44;;;4.37;76.53
85130;BME280;75492;49.310;20.046;2024-03-29T00:28:15;90605.41;;;4.22;75.96
85130;BME280;75492;49.310;20.046;2024-03-29T00:33:18;90610.84;;;4.01;77.78
85130;BME280;75492;49.310;20.046;2024-03-29T00:38:19;90617.25;;;4.12;77.73
85130;BME280;75492;49.310;20.046;2024-03-29T00:43:21;90624.25;;;4.05;76.42
85130;BME280;75492;49.310;20.046;2024-03-29T00:48:23;90660.47;;;3.97;77.06
85130;BME280;75492;49.310;20.046;2024-03-29T00:53:25;90665.88;;;3.76;78.17
85130;BME280;75492;49.310;20.046;2024-03-29T00:58:26;90692.25;;;3.93;78.51
85130;BME280;75492;49.310;20.046;2024-03-29T01:03:29;90703.19;;;4.16;77.15
85130;BME280;75492;49.310;20.046;2024-03-29T01:08:30;90716.28;;;3.97;77.36
85130;BME280;75492;49.310;20.046;2024-03-29T01:13:32;90714.47;;;4.25;77.79
85130;BME280;75492;49.310;20.046;2024-03-29T01:18:35;90716.22;;;4.58;77.08
85130;BME280;75492;49.310;20.046;2024-03-29T01:23:36;90705.59;;;4.58;76.83
85130;BME280;75492;49.310;20.046;2024-03-29T01:28:38;90722.13;;;4.39;77.60
85130;BME280;75492;49.310;20.046;2024-03-29T01:33:41;90723.66;;;4.65;77.76
85130;BME280;75492;49.310;20.046;2024-03-29T01:38:42;90726.59;;;4.88;76.06
85130;BME280;75492;49.310;20.046;2024-03-29T01:43:44;90740.38;;;4.78;76.52
85130;BME280;75492;49.310;20.046;2024-03-29T01:48:46;90754.22;;;4.71;77.28
85130;BME280;75492;49.310;20.046;2024-03-29T01:53:50;90769.94;;;4.76;76.67
85130;BME280;75492;49.310;20.046;2024-03-29T01:58:53;90797.88;;;4.94;76.04
85130;BME280;75492;49.310;20.046;2024-03-29T02:03:57;90809.31;;;4.70;76.71
85130;BME280;75492;49.310;20.046;2024-03-29T02:08:58;90824.16;;;4.84;76.93
85130;BME280;75492;49.310;20.046;2024-03-29T02:14:00;90842.25;;;4.90;76.65
85130;BME280;75492;49.310;20.046;2024-03-29T02:19:03;90858.66;;;4.80;75.81
85130;BME280;75492;49.310;20.046;2024-03-29T02:24:08;90872.72;;;4.81;75.22
85130;BME280;75492;49.310;20.046;2024-03-29T02:29:09;90883.59;;;4.88;75.26
85130;BME280;75492;49.310;20.046;2024-03-29T02:34:10;90889.25;;;5.23;74.51
85130;BME280;75492;49.310;20.046;2024-03-29T02:39:13;90906.91;;;5.03;73.63
85130;BME280;75492;49.310;20.046;2024-03-29T02:44:14;90931.06;;;4.98;73.47
85130;BME280;75492;49.310;20.046;2024-03-29T02:49:16;90928.84;;;5.00;73.61
85130;BME280;75492;49.310;20.046;2024-03-29T02:54:19;90934.59;;;5.14;72.16
85130;BME280;75492;49.310;20.046;2024-03-29T02:59:20;90939.94;;;4.90;73.70
85130;BME280;75492;49.310;20.046;2024-03-29T03:04:21;90957.88;;;4.81;73.89
85130;BME280;75492;49.310;20.046;2024-03-29T03:09:24;90963.09;;;4.89;73.12
85130;BME280;75492;49.310;20.046;2024-03-29T03:14:25;90978.09;;;4.94;73.24
85130;BME280;75492;49.310;20.046;2024-03-29T03:19:27;90986.50;;;4.84;71.98
85130;BME280;75492;49.310;20.046;2024-03-29T03:24:30;90994.63;;;4.54;73.57
85130;BME280;75492;49.310;20.046;2024-03-29T03:29:31;90989.47;;;4.82;72.21
85130;BME280;75492;49.310;20.046;2024-03-29T03:34:33;91003.19;;;4.72;71.42
85130;BME280;75492;49.310;20.046;2024-03-29T03:39:37;91006.22;;;4.83;70.48
85130;BME280;75492;49.310;20.046;2024-03-29T03:44:38;91002.13;;;4.85;70.12
85130;BME280;75492;49.310;20.046;2024-03-29T03:49:40;90994.78;;;4.82;70.67
85130;BME280;75492;49.310;20.046;2024-03-29T03:54:42;91028.00;;;4.64;69.66
85130;BME280;75492;49.310;20.046;2024-03-29T03:59:44;91043.75;;;4.69;68.65
85130;BME280;75492;49.310;20.046;2024-03-29T04:04:48;91041.91;;;4.82;67.43
85130;BME280;75492;49.310;20.046;2024-03-29T04:09:52;91064.53;;;4.55;67.93
85130;BME280;75492;49.310;20.046;2024-03-29T04:14:53;91068.22;;;4.95;66.88
85130;BME280;75492;49.310;20.046;2024-03-29T04:19:54;91058.34;;;4.84;66.17
85130;BME280;75492;49.310;20.046;2024-03-29T04:24:57;91065.69;;;4.66;68.00
85130;BME280;75492;49.310;20.046;2024-03-29T04:29:59;91096.25;;;4.60;67.96
85130;BME280;75492;49.310;20.046;2024-03-29T04:35:02;91103.16;;;4.40;69.80
85130;BME280;75492;49.310;20.046;2024-03-29T04:40:06;91115.41;;;4.53;67.10
85130;BME280;75492;49.310;20.046;2024-03-29T04:45:08;91104.59;;;4.37;68.69
85130;BME280;75492;49.310;20.046;2024-03-29T04:50:09;91117.50;;;4.47;68.37
85130;BME280;75492;49.310;20.046;2024-03-29T04:55:12;91120.06;;;4.56;67.48
85130;BME280;75492;49.310;20.046;2024-03-29T05:00:14;91130.50;;;5.15;65.76
85130;BME280;75492;49.310;20.046;2024-03-29T05:05:15;91126.81;;;5.41;63.50
85130;BME280;75492;49.310;20.046;2024-03-29T05:10:18;91135.13;;;5.97;62.34
85130;BME280;75492;49.310;20.046;2024-03-29T05:15:20;91144.31;;;6.89;59.52
85130;BME280;75492;49.310;20.046;2024-03-29T05:20:21;91131.41;;;7.47;59.20
85130;BME280;75492;49.310;20.046;2024-03-29T05:25:24;91130.56;;;7.75;59.47
85130;BME280;75492;49.310;20.046;2024-03-29T05:30:26;91133.97;;;7.60;59.61
85130;BME280;75492;49.310;20.046;2024-03-29T05:35:27;91120.56;;;7.88;58.69
85130;BME280;75492;49.310;20.046;2024-03-29T05:40:30;91106.75;;;7.54;61.90
85130;BME280;75492;49.310;20.046;2024-03-29T05:45:31;91108.56;;;7.50;64.20
85130;BME280;75492;49.310;20.046;2024-03-29T05:50:33;91130.53;;;7.59;64.00
85130;BME280;75492;49.310;20.046;2024-03-29T05:55:35;91137.72;;;8.18;59.62
85130;BME280;75492;49.310;20.046;2024-03-29T06:00:37;91145.06;;;7.90;61.29
85130;BME280;75492;49.310;20.046;2024-03-29T06:05:39;91149.22;;;7.87;61.97
85130;BME280;75492;49.310;20.046;2024-03-29T06:10:42;91153.94;;;7.78;60.28
85130;BME280;75492;49.310;20.046;2024-03-29T06:15:44;91145.59;;;7.36;60.71
85130;BME280;75492;49.310;20.046;2024-03-29T06:20:46;91131.44;;;7.63;61.89
85130;BME280;75492;49.310;20.046;2024-03-29T06:25:49;91146.03;;;7.38;61.22
85130;BME280;75492;49.310;20.046;2024-03-29T06:30:50;91154.59;;;7.59;63.10
85130;BME280;75492;49.310;20.046;2024-03-29T06:35:54;91159.28;;;7.34;62.82
85130;BME280;75492;49.310;20.046;2024-03-29T06:40:57;91148.41;;;7.71;58.42
85130;BME280;75492;49.310;20.046;2024-03-29T06:45:59;91135.81;;;7.71;57.28
85130;BME280;75492;49.310;20.046;2024-03-29T06:51:01;91126.00;;;7.91;59.24
85130;BME280;75492;49.310;20.046;2024-03-29T06:56:05;91125.38;;;7.98;55.69
85130;BME280;75492;49.310;20.046;2024-03-29T07:01:06;91136.34;;;8.40;51.68
85130;BME280;75492;49.310;20.046;2024-03-29T07:06:07;91128.84;;;7.98;53.97
85130;BME280;75492;49.310;20.046;2024-03-29T07:11:10;91128.91;;;8.34;51.41
85130;BME280;75492;49.310;20.046;2024-03-29T07:16:12;91150.59;;;8.44;48.71
85130;BME280;75492;49.310;20.046;2024-03-29T07:21:13;91151.34;;;8.45;51.13
85130;BME280;75492;49.310;20.046;2024-03-29T07:26:16;91140.63;;;8.61;49.45
85130;BME280;75492;49.310;20.046;2024-03-29T07:31:17;91136.84;;;8.46;46.64
85130;BME280;75492;49.310;20.046;2024-03-29T07:36:19;91141.16;;;8.86;48.60
85130;BME280;75492;49.310;20.046;2024-03-29T07:41:22;91128.41;;;9.18;47.98
85130;BME280;75492;49.310;20.046;2024-03-29T07:46:23;91117.34;;;9.00;44.63
85130;BME280;75492;49.310;20.046;2024-03-29T07:51:24;91127.34;;;9.42;46.72
85130;BME280;75492;49.310;20.046;2024-03-29T07:56:27;91121.75;;;9.51;46.16
85130;BME280;75492;49.310;20.046;2024-03-29T08:01:29;91133.75;;;9.37;39.69
85130;BME280;75492;49.310;20.046;2024-03-29T08:06:30;91131.59;;;9.43;41.12
85130;BME280;75492;49.310;20.046;2024-03-29T08:11:33;91163.06;;;9.69;48.39
85130;BME280;75492;49.310;20.046;2024-03-29T08:16:34;91171.47;;;9.68;45.91
85130;BME280;75492;49.310;20.046;2024-03-29T08:21:35;91195.19;;;9.46;43.76
85130;BME280;75492;49.310;20.046;2024-03-29T08:26:38;91198.25;;;10.06;43.53
85130;BME280;75492;49.310;20.046;2024-03-29T08:31:39;91187.00;;;9.78;42.31
85130;BME280;75492;49.310;20.046;2024-03-29T08:36:41;91197.00;;;10.00;39.83
85130;BME280;75492;49.310;20.046;2024-03-29T08:41:44;91194.69;;;10.45;41.17
85130;BME280;75492;49.310;20.046;2024-03-29T08:46:45;91193.78;;;10.14;42.96
85130;BME280;75492;49.310;20.046;2024-03-29T08:51:47;91189.88;;;10.54;44.46
85130;BME280;75492;49.310;20.046;2024-03-29T08:56:50;91198.47;;;10.40;43.59
85130;BME280;75492;49.310;20.046;2024-03-29T09:01:51;91208.16;;;10.71;41.55
85130;BME280;75492;49.310;20.046;2024-03-29T09:06:52;91200.31;;;12.95;46.68
85130;BME280;75492;49.310;20.046;2024-03-29T09:11:55;91180.19;;;15.10;45.18
85130;BME280;75492;49.310;20.046;2024-03-29T09:16:56;91184.53;;;16.17;43.66
85130;BME280;75492;49.310;20.046;2024-03-29T09:21:58;91159.53;;;16.51;36.67
85130;BME280;75492;49.310;20.046;2024-03-29T09:27:01;91148.88;;;15.16;35.63
85130;BME280;75492;49.310;20.046;2024-03-29T09:32:02;91143.88;;;16.17;44.31
85130;BME280;75492;49.310;20.046;2024-03-29T09:37:04;91161.03;;;13.60;29.70
85130;BME280;75492;49.310;20.046;2024-03-29T09:42:07;91170.34;;;13.77;34.03
85130;BME280;75492;49.310;20.046;2024-03-29T09:47:11;91167.44;;;14.75;31.99
85130;BME280;75492;49.310;20.046;2024-03-29T09:52:15;91163.34;;;15.90;45.99
85130;BME280;75492;49.310;20.046;2024-03-29T09:57:19;91165.56;;;16.13;30.95
85130;BME280;75492;49.310;20.046;2024-03-29T10:02:20;91167.34;;;14.07;31.25
85130;BME280;75492;49.310;20.046;2024-03-29T10:07:23;91159.56;;;13.80;35.47
85130;BME280;75492;49.310;20.046;2024-03-29T10:12:27;91171.84;;;13.67;35.67
85130;BME280;75492;49.310;20.046;2024-03-29T10:17:28;91175.63;;;13.52;37.61
85130;BME280;75492;49.310;20.046;2024-03-29T10:22:30;91175.03;;;14.05;35.54
85130;BME280;75492;49.310;20.046;2024-03-29T10:27:32;91179.91;;;13.56;33.81
85130;BME280;75492;49.310;20.046;2024-03-29T10:32:34;91202.63;;;13.59;34.41
85130;BME280;75492;49.310;20.046;2024-03-29T10:37:35;91191.22;;;13.17;38.72
85130;BME280;75492;49.310;20.046;2024-03-29T10:42:39;91192.00;;;13.98;35.77
85130;BME280;75492;49.310;20.046;2024-03-29T10:47:42;91199.06;;;15.49;39.07
85130;BME280;75492;49.310;20.046;2024-03-29T10:52:45;91196.41;;;16.37;47.32
85130;BME280;75492;49.310;20.046;2024-03-29T10:57:53;91171.06;;;17.55;35.38
85130;BME280;75492;49.310;20.046;2024-03-29T11:02:59;91152.59;;;16.42;34.32
85130;BME280;75492;49.310;20.046;2024-03-29T11:08:06;91141.56;;;14.85;34.58
85130;BME280;75492;49.310;20.046;2024-03-29T11:13:12;91149.63;;;15.06;33.52
85130;BME280;75492;49.310;20.046;2024-03-29T11:18:16;91136.88;;;14.17;36.75
85130;BME280;75492;49.310;20.046;2024-03-29T11:23:19;91132.28;;;14.82;45.88
85130;BME280;75492;49.310;20.046;2024-03-29T11:28:28;91139.16;;;15.26;36.40
85130;BME280;75492;49.310;20.046;2024-03-29T11:33:31;91138.72;;;16.37;44.04
85130;BME280;75492;49.310;20.046;2024-03-29T11:38:35;91120.63;;;16.16;44.21
85130;BME280;75492;49.310;20.046;2024-03-29T11:43:38;91120.81;;;17.74;42.64
85130;BME280;75492;49.310;20.046;2024-03-29T11:48:40;91130.91;;;18.08;43.25
85130;BME280;75492;49.310;20.046;2024-03-29T11:53:42;91116.63;;;18.00;31.62
85130;BME280;75492;49.310;20.046;2024-03-29T11:58:46;91099.81;;;17.06;37.43
85130;BME280;75492;49.310;20.046;2024-03-29T12:03:48;91110.91;;;16.81;43.17
85130;BME280;75492;49.310;20.046;2024-03-29T12:08:49;91115.69;;;16.04;38.00
85130;BME280;75492;49.310;20.046;2024-03-29T12:13:52;91112.34;;;15.74;43.10
85130;BME280;75492;49.310;20.046;2024-03-29T12:18:54;91127.25;;;14.20;39.54
85130;BME280;75492;49.310;20.046;2024-03-29T12:23:55;91126.13;;;14.53;38.54
85130;BME280;75492;49.310;20.046;2024-03-29T12:28:58;91119.50;;;14.22;39.84
85130;BME280;75492;49.310;20.046;2024-03-29T12:33:59;91122.50;;;13.67;39.63
85130;BME280;75492;49.310;20.046;2024-03-29T12:39:01;91116.69;;;13.64;39.23
85130;BME280;75492;49.310;20.046;2024-03-29T12:44:04;91097.44;;;13.73;39.83
85130;BME280;75492;49.310;20.046;2024-03-29T12:49:06;91104.97;;;13.28;41.02
85130;BME280;75492;49.310;20.046;2024-03-29T12:54:07;91114.28;;;13.41;42.46
85130;BME280;75492;49.310;20.046;2024-03-29T12:59:10;91096.63;;;13.58;44.32
85130;BME280;75492;49.310;20.046;2024-03-29T13:04:12;91086.16;;;13.42;42.56
85130;BME280;75492;49.310;20.046;2024-03-29T13:09:14;91093.38;;;13.21;43.98
85130;BME280;75492;49.310;20.046;2024-03-29T13:14:16;91096.63;;;13.69;40.35
85130;BME280;75492;49.310;20.046;2024-03-29T13:19:18;91091.03;;;13.15;42.07
85130;BME280;75492;49.310;20.046;2024-03-29T13:24:19;91080.88;;;13.89;44.86
85130;BME280;75492;49.310;20.046;2024-03-29T13:29:22;91087.63;;;13.26;40.87
85130;BME280;75492;49.310;20.046;2024-03-29T13:34:25;91078.69;;;13.14;41.90
85130;BME280;75492;49.310;20.046;2024-03-29T13:39:26;91083.28;;;13.03;43.68
85130;BME280;75492;49.310;20.046;2024-03-29T13:44:29;91085.19;;;13.03;43.54
85130;BME280;75492;49.310;20.046;2024-03-29T13:49:30;91081.59;;;13.68;42.06
85130;BME280;75492;49.310;20.046;2024-03-29T13:54:32;91092.94;;;13.15;44.98
85130;BME280;75492;49.310;20.046;2024-03-29T13:59:35;91070.75;;;13.47;43.36
85130;BME280;75492;49.310;20.046;2024-03-29T14:04:36;91072.81;;;12.94;46.29
85130;BME280;75492;49.310;20.046;2024-03-29T14:09:37;91078.47;;;13.55;45.03
85130;BME280;75492;49.310;20.046;2024-03-29T14:14:40;91089.31;;;13.66;44.03
85130;BME280;75492;49.310;20.046;2024-03-29T14:19:42;91097.06;;;13.89;42.40
85130;BME280;75492;49.310;20.046;2024-03-29T14:24:43;91088.59;;;13.80;43.29
85130;BME280;75492;49.310;20.046;2024-03-29T14:29:47;91099.00;;;13.92;42.73
85130;BME280;75492;49.310;20.046;2024-03-29T14:34:48;91090.94;;;14.03;43.25
85130;BME280;75492;49.310;20.046;2024-03-29T14:39:50;91101.47;;;13.21;44.96
85130;BME280;75492;49.310;20.046;2024-03-29T14:44:52;91099.41;;;12.96;45.00
85130;BME280;75492;49.310;20.046;2024-03-29T14:49:54;91088.31;;;13.15;46.44
85130;BME280;75492;49.310;20.046;2024-03-29T14:54:55;91090.00;;;13.41;45.98
85130;BME280;75492;49.310;20.046;2024-03-29T14:59:58;91088.91;;;13.53;48.26
85130;BME280;75492;49.310;20.046;2024-03-29T15:04:59;91078.66;;;13.07;47.41
85130;BME280;75492;49.310;20.046;2024-03-29T15:10:01;91072.72;;;13.60;45.03
85130;BME280;75492;49.310;20.046;2024-03-29T15:15:06;91076.16;;;13.47;45.26
85130;BME280;75492;49.310;20.046;2024-03-29T15:20:08;91087.00;;;13.68;46.01
85130;BME280;75492;49.310;20.046;2024-03-29T15:25:10;91092.63;;;13.24;46.62
85130;BME280;75492;49.310;20.046;2024-03-29T15:30:14;91102.00;;;12.82;48.19
85130;BME280;75492;49.310;20.046;2024-03-29T15:35:15;91117.44;;;13.65;51.82
85130;BME280;75492;49.310;20.046;2024-03-29T15:40:17;91115.53;;;12.89;48.74
85130;BME280;75492;49.310;20.046;2024-03-29T15:45:20;91113.44;;;13.23;46.23
85130;BME280;75492;49.310;20.046;2024-03-29T15:50:21;91134.16;;;13.15;50.22
85130;BME280;75492;49.310;20.046;2024-03-29T15:55:22;91121.56;;;13.30;47.19
85130;BME280;75492;49.310;20.046;2024-03-29T16:00:25;91131.63;;;12.75;48.45
85130;BME280;75492;49.310;20.046;2024-03-29T16:05:27;91126.47;;;12.52;49.07
85130;BME280;75492;49.310;20.046;2024-03-29T16:10:28;91119.97;;;12.56;49.29
85130;BME280;75492;49.310;20.046;2024-03-29T16:15:31;91107.19;;;14.81;46.91
85130;BME280;75492;49.310;20.046;2024-03-29T16:20:32;91101.41;;;14.65;52.25
85130;BME280;75492;49.310;20.046;2024-03-29T16:25:34;91095.53;;;14.02;45.96
85130;BME280;75492;49.310;20.046;2024-03-29T16:30:37;91089.63;;;12.70;50.44
85130;BME280;75492;49.310;20.046;2024-03-29T16:35:39;91103.53;;;12.20;53.37
85130;BME280;75492;49.310;20.046;2024-03-29T16:40:40;91092.44;;;13.86;47.89
85130;BME280;75492;49.310;20.046;2024-03-29T16:45:43;91092.66;;;12.61;50.18
85130;BME280;75492;49.310;20.046;2024-03-29T16:50:45;91108.53;;;12.22;52.97
85130;BME280;75492;49.310;20.046;2024-03-29T16:55:47;91110.78;;;11.79;53.88
85130;BME280;75492;49.310;20.046;2024-03-29T17:00:50;91116.72;;;11.92;53.83
85130;BME280;75492;49.310;20.046;2024-03-29T17:05:51;91120.81;;;11.82;55.27
85130;BME280;75492;49.310;20.046;2024-03-29T17:10:52;91120.53;;;11.53;57.40
85130;BME280;75492;49.310;20.046;2024-03-29T17:15:55;91098.28;;;11.57;56.57
85130;BME280;75492;49.310;20.046;2024-03-29T17:20:56;91108.44;;;11.37;57.90
85130;BME280;75492;49.310;20.046;2024-03-29T17:25:58;91089.78;;;11.54;57.68
85130;BME280;75492;49.310;20.046;2024-03-29T17:31:00;91084.84;;;11.57;57.42
85130;BME280;75492;49.310;20.046;2024-03-29T17:36:02;91093.94;;;12.23;55.48
85130;BME280;75492;49.310;20.046;2024-03-29T17:41:04;91092.66;;;11.35;57.89
85130;BME280;75492;49.310;20.046;2024-03-29T17:46:06;91100.72;;;11.35;58.02
85130;BME280;75492;49.310;20.046;2024-03-29T17:51:08;91083.72;;;10.94;60.09
85130;BME280;75492;49.310;20.046;2024-03-29T17:56:09;91103.78;;;11.00;59.99
85130;BME280;75492;49.310;20.046;2024-03-29T18:01:13;91104.03;;;10.91;60.78
85130;BME280;75492;49.310;20.046;2024-03-29T18:06:15;91106.41;;;11.26;59.82
85130;BME280;75492;49.310;20.046;2024-03-29T18:11:17;91123.06;;;11.09;61.07
85130;BME280;75492;49.310;20.046;2024-03-29T18:16:21;91122.53;;;10.96;61.23
85130;BME280;75492;49.310;20.046;2024-03-29T18:21:22;91132.88;;;11.24;61.92
85130;BME280;75492;49.310;20.046;2024-03-29T18:26:24;91126.47;;;11.36;61.36
85130;BME280;75492;49.310;20.046;2024-03-29T18:31:26;91126.31;;;11.22;61.75
85130;BME280;75492;49.310;20.046;2024-03-29T18:36:28;91123.16;;;11.46;61.35
85130;BME280;75492;49.310;20.046;2024-03-29T18:41:29;91127.00;;;11.15;62.75
85130;BME280;75492;49.310;20.046;2024-03-29T18:46:32;91122.06;;;11.88;61.48
85130;BME280;75492;49.310;20.046;2024-03-29T18:51:34;91126.31;;;11.55;62.17
85130;BME280;75492;49.310;20.046;2024-03-29T18:56:35;91132.22;;;11.35;62.96
85130;BME280;75492;49.310;20.046;2024-03-29T19:01:38;91128.97;;;11.52;62.81
85130;BME280;75492;49.310;20.046;2024-03-29T19:06:39;91126.06;;;12.50;59.16
85130;BME280;75492;49.310;20.046;2024-03-29T19:11:40;91125.28;;;11.67;61.81
85130;BME280;75492;49.310;20.046;2024-03-29T19:16:43;91129.41;;;11.24;63.30
85130;BME280;75492;49.310;20.046;2024-03-29T19:21:45;91105.78;;;11.77;60.81
85130;BME280;75492;49.310;20.046;2024-03-29T19:26:47;91119.06;;;11.60;62.04
85130;BME280;75492;49.310;20.046;2024-03-29T19:31:52;91113.88;;;13.36;58.14
85130;BME280;75492;49.310;20.046;2024-03-29T19:36:54;91114.59;;;12.12;63.71
85130;BME280;75492;49.310;20.046;2024-03-29T19:41:55;91135.38;;;12.15;62.55
85130;BME280;75492;49.310;20.046;2024-03-29T19:46:58;91138.78;;;12.08;63.07
85130;BME280;75492;49.310;20.046;2024-03-29T19:51:59;91135.28;;;13.91;59.45
85130;BME280;75492;49.310;20.046;2024-03-29T19:57:01;91122.94;;;12.44;60.96
85130;BME280;75492;49.310;20.046;2024-03-29T20:02:04;91120.94;;;12.34;60.95
85130;BME280;75492;49.310;20.046;2024-03-29T20:07:06;91114.63;;;11.78;62.71
85130;BME280;75492;49.310;20.046;2024-03-29T20:12:08;91108.00;;;11.68;62.92
85130;BME280;75492;49.310;20.046;2024-03-29T20:17:11;91128.75;;;11.68;63.18
85130;BME280;75492;49.310;20.046;2024-03-29T20:22:12;91123.09;;;11.76;62.55
85130;BME280;75492;49.310;20.046;2024-03-29T20:27:13;91125.06;;;11.83;62.14
85130;BME280;75492;49.310;20.046;2024-03-29T20:32:16;91123.66;;;11.93;61.86
85130;BME280;75492;49.310;20.046;2024-03-29T20:37:18;91120.81;;;12.19;59.56
85130;BME280;75492;49.310;20.046;2024-03-29T20:42:19;91117.94;;;11.98;61.31
85130;BME280;75492;49.310;20.046;2024-03-29T20:47:22;91106.69;;;12.88;60.27
85130;BME280;75492;49.310;20.046;2024-03-29T20:52:23;91113.78;;;12.08;60.30
85130;BME280;75492;49.310;20.046;2024-03-29T20:57:25;91118.06;;;12.16;59.34
85130;BME280;75492;49.310;20.046;2024-03-29T21:02:28;91093.13;;;11.82;60.86
85130;BME280;75492;49.310;20.046;2024-03-29T21:07:29;91084.66;;;12.79;56.80
85130;BME280;75492;49.310;20.046;2024-03-29T21:12:31;91084.22;;;13.39;58.48
85130;BME280;75492;49.310;20.046;2024-03-29T21:17:34;91075.13;;;12.96;55.75
85130;BME280;75492;49.310;20.046;2024-03-29T21:22:35;91072.25;;;12.09;59.85
85130;BME280;75492;49.310;20.046;2024-03-29T21:27:39;91086.56;;;12.75;56.29
85130;BME280;75492;49.310;20.046;2024-03-29T21:32:42;91089.63;;;12.15;59.11
85130;BME280;75492;49.310;20.046;2024-03-29T21:37:44;91096.41;;;11.61;61.04
85130;BME280;75492;49.310;20.046;2024-03-29T21:42:45;91100.84;;;11.46;62.16
85130;BME280;75492;49.310;20.046;2024-03-29T21:47:49;91095.59;;;11.23;62.64
85130;BME280;75492;49.310;20.046;2024-03-29T21:52:50;91097.34;;;10.78;63.98
85130;BME280;75492;49.310;20.046;2024-03-29T21:57:51;91098.78;;;10.72;63.76
85130;BME280;75492;49.310;20.046;2024-03-29T22:02:54;91101.63;;;10.56;63.86
85130;BME280;75492;49.310;20.046;2024-03-29T22:07:56;91103.28;;;10.14;66.79
85130;BME280;75492;49.310;20.046;2024-03-29T22:12:57;91113.22;;;9.87;67.36
85130;BME280;75492;49.310;20.046;2024-03-29T22:18:00;91121.31;;;9.91;66.95
85130;BME280;75492;49.310;20.046;2024-03-29T22:23:01;91118.09;;;9.82;67.52
85130;BME280;75492;49.310;20.046;2024-03-29T22:28:03;91114.31;;;9.21;69.10
85130;BME280;75492;49.310;20.046;2024-03-29T22:33:06;91086.25;;;9.80;66.52
85130;BME280;75492;49.310;20.046;2024-03-29T22:38:07;91083.44;;;9.96;65.84
85130;BME280;75492;49.310;20.046;2024-03-29T22:43:08;91058.34;;;11.25;65.17
85130;BME280;75492;49.310;20.046;2024-03-29T22:48:11;91080.84;;;11.43;58.19
85130;BME280;75492;49.310;20.046;2024-03-29T22:53:12;91093.75;;;10.40;63.86
85130;BME280;75492;49.310;20.046;2024-03-29T22:58:14;91089.41;;;10.09;65.45
85130;BME280;75492;49.310;20.046;2024-03-29T23:03:16;91081.09;;;10.67;61.07
85130;BME280;75492;49.310;20.046;2024-03-29T23:08:18;91076.75;;;10.89;59.76
85130;BME280;75492;49.310;20.046;2024-03-29T23:13:19;91069.91;;;10.95;58.76
85130;BME280;75492;49.310;20.046;2024-03-29T23:18:22;91060.63;;;11.23;57.54
85130;BME280;75492;49.310;20.046;2024-03-29T23:23:24;91075.09;;;10.51;62.10
85130;BME280;75492;49.310;20.046;2024-03-29T23:28:25;91072.22;;;10.13;63.51
85130;BME280;75492;49.310;20.046;2024-03-29T23:33:28;91074.03;;;9.37;66.56
85130;BME280;75492;49.310;20.046;2024-03-29T23:38:29;91072.91;;;8.99;67.94
85130;BME280;75492;49.310;20.046;2024-03-29T23:43:31;91061.22;;;8.88;68.51
85130;BME280;75492;49.310;20.046;2024-03-29T23:48:34;91076.16;;;8.89;68.42
85130;BME280;75492;49.310;20.046;2024-03-29T23:53:36;91082.16;;;8.82;68.67
85130;BME280;75492;49.310;20.046;2024-03-29T23:58:37;91084.81;;;8.43;69.96
